Brecon, United Kingdom
Current Conditions -  °F | °C
As of 3:50 PM on Saturday 20 Dec 2014 (Local Time) from EGFF Reporting Station
Few Clouds Few Clouds  
Wind Chill: 41°   Ceiling: Unl
Heat Index: 46°   Visibility: 6mi
Dew Point: 41°   Wind: 10mph
Humidity: 81%   Direction: 290°WNW
Pressure: 30.42"   Gusts: NA
Location:  51.95°N, 3.39°W
Report Text: EGFF 201550Z AUTO 29009KT 9999 FEW041 08/05 Q1030
Loading
Personal Weather Stations






























Interactive Weather Map New forecast layout! Learn more

10-Day Weather Forecast

Advertisements
Track Severe Weather on mobile